sensor_id;sensor_type;location;lat;lon;timestamp;pressure;altitude;pressure_sealevel;temperature;humidity
13709;BME280;54933;51.908;7.730;2022-08-21T00:01:02;101088.00;;;24.17;100.00
13709;BME280;54933;51.908;7.730;2022-08-21T00:03:28;101086.13;;;24.18;100.00
13709;BME280;54933;51.908;7.730;2022-08-21T00:05:53;101085.28;;;24.17;100.00
13709;BME280;54933;51.908;7.730;2022-08-21T00:08:20;101080.69;;;24.18;100.00
13709;BME280;54933;51.908;7.730;2022-08-21T00:10:47;101086.94;;;24.18;100.00
13709;BME280;54933;51.908;7.730;2022-08-21T00:13:13;101082.34;;;24.19;100.00
13709;BME280;54933;51.908;7.730;2022-08-21T00:15:40;101075.25;;;24.18;100.00
13709;BME280;54933;51.908;7.730;2022-08-21T00:18:07;101076.91;;;24.19;100.00
13709;BME280;54933;51.908;7.730;2022-08-21T00:20:34;101072.53;;;24.18;100.00
13709;BME280;54933;51.908;7.730;2022-08-21T00:22:59;101070.63;;;24.18;100.00
13709;BME280;54933;51.908;7.730;2022-08-21T00:25:25;101076.91;;;24.19;100.00
13709;BME280;54933;51.908;7.730;2022-08-21T00:27:50;101064.41;;;24.18;100.00
13709;BME280;54933;51.908;7.730;2022-08-21T00:30:18;101071.47;;;24.19;100.00
13709;BME280;54933;51.908;7.730;2022-08-21T00:32:44;101068.16;;;24.17;100.00
13709;BME280;54933;51.908;7.730;2022-08-21T00:35:14;101058.97;;;24.18;100.00
13709;BME280;54933;51.908;7.730;2022-08-21T00:37:40;101069.81;;;24.18;100.00
13709;BME280;54933;51.908;7.730;2022-08-21T00:40:09;101058.97;;;24.18;100.00
13709;BME280;54933;51.908;7.730;2022-08-21T00:42:35;101058.97;;;24.18;100.00
13709;BME280;54933;51.908;7.730;2022-08-21T00:45:02;101067.13;;;24.18;100.00
13709;BME280;54933;51.908;7.730;2022-08-21T00:47:28;101062.72;;;24.17;100.00
13709;BME280;54933;51.908;7.730;2022-08-21T00:49:53;101061.91;;;24.16;100.00
13709;BME280;54933;51.908;7.730;2022-08-21T00:52:23;101055.41;;;24.17;100.00
13709;BME280;54933;51.908;7.730;2022-08-21T00:54:50;101055.66;;;24.16;100.00
13709;BME280;54933;51.908;7.730;2022-08-21T00:57:24;101056.47;;;24.16;100.00
13709;BME280;54933;51.908;7.730;2022-08-21T00:59:53;101057.28;;;24.17;100.00
13709;BME280;54933;51.908;7.730;2022-08-21T01:02:21;101060.00;;;24.17;100.00
13709;BME280;54933;51.908;7.730;2022-08-21T01:04:46;101057.28;;;24.17;100.00
13709;BME280;54933;51.908;7.730;2022-08-21T01:07:12;101053.78;;;24.16;100.00
13709;BME280;54933;51.908;7.730;2022-08-21T01:09:38;101049.38;;;24.15;100.00
13709;BME280;54933;51.908;7.730;2022-08-21T01:12:04;101054.81;;;24.15;100.00
13709;BME280;54933;51.908;7.730;2022-08-21T01:14:30;101055.66;;;24.16;100.00
13709;BME280;54933;51.908;7.730;2022-08-21T01:16:56;101050.22;;;24.16;100.00
13709;BME280;54933;51.908;7.730;2022-08-21T01:19:23;101061.06;;;24.16;100.00
13709;BME280;54933;51.908;7.730;2022-08-21T01:21:49;101055.66;;;24.16;100.00
13709;BME280;54933;51.908;7.730;2022-08-21T01:24:14;101050.22;;;24.16;100.00
13709;BME280;54933;51.908;7.730;2022-08-21T01:26:41;101064.63;;;24.16;100.00
13709;BME280;54933;51.908;7.730;2022-08-21T01:31:42;101056.47;;;24.16;100.00
13709;BME280;54933;51.908;7.730;2022-08-21T01:34:08;101044.78;;;24.16;100.00
13709;BME280;54933;51.908;7.730;2022-08-21T01:36:34;101051.84;;;24.17;100.00
13709;BME280;54933;51.908;7.730;2022-08-21T01:39:00;101052.94;;;24.16;100.00
13709;BME280;54933;51.908;7.730;2022-08-21T01:41:25;101051.28;;;24.15;100.00
13709;BME280;54933;51.908;7.730;2022-08-21T01:43:50;101055.66;;;24.16;100.00
13709;BME280;54933;51.908;7.730;2022-08-21T01:46:16;101055.66;;;24.16;100.00
13709;BME280;54933;51.908;7.730;2022-08-21T01:48:42;101050.22;;;24.16;100.00
13709;BME280;54933;51.908;7.730;2022-08-21T01:51:08;101061.91;;;24.16;100.00
13709;BME280;54933;51.908;7.730;2022-08-21T01:53:34;101050.22;;;24.16;100.00
13709;BME280;54933;51.908;7.730;2022-08-21T01:56:01;101052.94;;;24.16;100.00
13709;BME280;54933;51.908;7.730;2022-08-21T01:58:27;101061.91;;;24.16;100.00
13709;BME280;54933;51.908;7.730;2022-08-21T02:00:52;101061.06;;;24.16;100.00
13709;BME280;54933;51.908;7.730;2022-08-21T02:03:18;101058.38;;;24.16;100.00
13709;BME280;54933;51.908;7.730;2022-08-21T02:05:43;101056.72;;;24.15;100.00
13709;BME280;54933;51.908;7.730;2022-08-21T02:08:08;101051.06;;;24.16;100.00
13709;BME280;54933;51.908;7.730;2022-08-21T02:10:34;101055.66;;;24.16;100.00
13709;BME280;54933;51.908;7.730;2022-08-21T02:13:00;101050.22;;;24.16;100.00
13709;BME280;54933;51.908;7.730;2022-08-21T02:15:27;101062.72;;;24.17;100.00
13709;BME280;54933;51.908;7.730;2022-08-21T02:17:56;101048.34;;;24.16;100.00
13709;BME280;54933;51.908;7.730;2022-08-21T02:20:25;101048.56;;;24.15;100.00
13709;BME280;54933;51.908;7.730;2022-08-21T02:22:50;101050.22;;;24.16;100.00
13709;BME280;54933;51.908;7.730;2022-08-21T02:25:17;101051.28;;;24.15;100.00
13709;BME280;54933;51.908;7.730;2022-08-21T02:27:45;101044.78;;;24.16;100.00
13709;BME280;54933;51.908;7.730;2022-08-21T02:30:15;101044.78;;;24.16;100.00
13709;BME280;54933;51.908;7.730;2022-08-21T02:32:41;101043.94;;;24.15;100.00
13709;BME280;54933;51.908;7.730;2022-08-21T02:35:08;101048.34;;;24.16;100.00
13709;BME280;54933;51.908;7.730;2022-08-21T02:37:43;101045.84;;;24.15;100.00
13709;BME280;54933;51.908;7.730;2022-08-21T02:40:09;101051.28;;;24.15;100.00
13709;BME280;54933;51.908;7.730;2022-08-21T02:42:36;101052.94;;;24.16;100.00
13709;BME280;54933;51.908;7.730;2022-08-21T02:45:03;101048.56;;;24.15;100.00
13709;BME280;54933;51.908;7.730;2022-08-21T02:47:28;101053.16;;;24.14;100.00
13709;BME280;54933;51.908;7.730;2022-08-21T02:49:53;101046.91;;;24.13;100.00
13709;BME280;54933;51.908;7.730;2022-08-21T02:52:18;101044.78;;;24.16;100.00
13709;BME280;54933;51.908;7.730;2022-08-21T02:54:44;101047.50;;;24.16;100.00
13709;BME280;54933;51.908;7.730;2022-08-21T02:57:09;101045.03;;;24.14;100.00
13709;BME280;54933;51.908;7.730;2022-08-21T02:59:34;101043.13;;;24.15;99.92
13709;BME280;54933;51.908;7.730;2022-08-21T03:01:59;101044.19;;;24.13;100.00
13709;BME280;54933;51.908;7.730;2022-08-21T03:04:25;101044.19;;;24.13;99.91
13709;BME280;54933;51.908;7.730;2022-08-21T03:06:50;101036.03;;;24.13;99.82
13709;BME280;54933;51.908;7.730;2022-08-21T03:09:15;101046.06;;;24.13;99.79
13709;BME280;54933;51.908;7.730;2022-08-21T03:11:40;101030.84;;;24.12;99.60
13709;BME280;54933;51.908;7.730;2022-08-21T03:14:06;101023.53;;;24.13;99.49
13709;BME280;54933;51.908;7.730;2022-08-21T03:16:31;101025.16;;;24.13;99.45
13709;BME280;54933;51.908;7.730;2022-08-21T03:18:56;101030.59;;;24.13;99.55
13709;BME280;54933;51.908;7.730;2022-08-21T03:21:22;101025.16;;;24.13;99.58
13709;BME280;54933;51.908;7.730;2022-08-21T03:23:47;101032.47;;;24.13;99.78
13709;BME280;54933;51.908;7.730;2022-08-21T03:26:12;101036.03;;;24.13;100.00
13709;BME280;54933;51.908;7.730;2022-08-21T03:28:38;101041.47;;;24.13;100.00
13709;BME280;54933;51.908;7.730;2022-08-21T03:31:04;101035.00;;;24.15;100.00
13709;BME280;54933;51.908;7.730;2022-08-21T03:33:30;101034.16;;;24.14;100.00
13709;BME280;54933;51.908;7.730;2022-08-21T03:36:03;101030.59;;;24.13;100.00
13709;BME280;54933;51.908;7.730;2022-08-21T03:38:30;101031.44;;;24.14;100.00
13709;BME280;54933;51.908;7.730;2022-08-21T03:40:56;101030.59;;;24.13;100.00
13709;BME280;54933;51.908;7.730;2022-08-21T03:43:21;101033.31;;;24.13;100.00
13709;BME280;54933;51.908;7.730;2022-08-21T03:45:47;101041.47;;;24.13;100.00
13709;BME280;54933;51.908;7.730;2022-08-21T03:48:12;101031.66;;;24.13;100.00
13709;BME280;54933;51.908;7.730;2022-08-21T03:50:41;101042.31;;;24.14;100.00
13709;BME280;54933;51.908;7.730;2022-08-21T03:53:09;101034.38;;;24.13;100.00
13709;BME280;54933;51.908;7.730;2022-08-21T03:55:35;101041.47;;;24.13;100.00
13709;BME280;54933;51.908;7.730;2022-08-21T03:58:01;101033.56;;;24.12;100.00
13709;BME280;54933;51.908;7.730;2022-08-21T04:00:26;101030.59;;;24.13;100.00
13709;BME280;54933;51.908;7.730;2022-08-21T04:02:52;101032.47;;;24.13;100.00
13709;BME280;54933;51.908;7.730;2022-08-21T04:05:18;101031.44;;;24.14;100.00
13709;BME280;54933;51.908;7.730;2022-08-21T04:07:53;101027.06;;;24.13;100.00
13709;BME280;54933;51.908;7.730;2022-08-21T04:10:18;101039.81;;;24.13;99.91
13709;BME280;54933;51.908;7.730;2022-08-21T04:12:44;101044.41;;;24.12;100.00
13709;BME280;54933;51.908;7.730;2022-08-21T04:15:09;101041.47;;;24.13;100.00
13709;BME280;54933;51.908;7.730;2022-08-21T04:17:34;101040.63;;;24.13;100.00
13709;BME280;54933;51.908;7.730;2022-08-21T04:20:01;101043.56;;;24.11;100.00
13709;BME280;54933;51.908;7.730;2022-08-21T04:22:26;101046.06;;;24.13;99.83
13709;BME280;54933;51.908;7.730;2022-08-21T04:24:51;101048.78;;;24.13;99.89
13709;BME280;54933;51.908;7.730;2022-08-21T04:27:17;101049.00;;;24.11;99.72
13709;BME280;54933;51.908;7.730;2022-08-21T04:29:42;101051.72;;;24.11;99.50
13709;BME280;54933;51.908;7.730;2022-08-21T04:32:07;101051.72;;;24.11;99.28
13709;BME280;54933;51.908;7.730;2022-08-21T04:34:32;101045.47;;;24.11;99.12
13709;BME280;54933;51.908;7.730;2022-08-21T04:36:58;101050.91;;;24.11;98.94
13709;BME280;54933;51.908;7.730;2022-08-21T04:39:23;101047.34;;;24.10;98.78
13709;BME280;54933;51.908;7.730;2022-08-21T04:41:48;101051.72;;;24.11;98.68
13709;BME280;54933;51.908;7.730;2022-08-21T04:44:14;101054.44;;;24.11;98.56
13709;BME280;54933;51.908;7.730;2022-08-21T04:46:39;101050.06;;;24.10;98.43
13709;BME280;54933;51.908;7.730;2022-08-21T04:49:05;101049.00;;;24.11;98.25
13709;BME280;54933;51.908;7.730;2022-08-21T04:51:32;101050.06;;;24.10;98.03
13709;BME280;54933;51.908;7.730;2022-08-21T04:54:08;101049.00;;;24.11;97.91
13709;BME280;54933;51.908;7.730;2022-08-21T04:56:43;101049.00;;;24.11;97.77
13709;BME280;54933;51.908;7.730;2022-08-21T04:59:13;101059.06;;;24.11;97.57
13709;BME280;54933;51.908;7.730;2022-08-21T05:01:41;101052.78;;;24.10;97.48
13709;BME280;54933;51.908;7.730;2022-08-21T05:04:10;101048.19;;;24.11;97.39
13709;BME280;54933;51.908;7.730;2022-08-21T05:06:37;101046.53;;;24.10;97.25
13709;BME280;54933;51.908;7.730;2022-08-21T05:09:04;101051.16;;;24.09;97.25
13709;BME280;54933;51.908;7.730;2022-08-21T05:11:31;101050.06;;;24.10;97.42
13709;BME280;54933;51.908;7.730;2022-08-21T05:13:56;101054.66;;;24.10;97.29
13709;BME280;54933;51.908;7.730;2022-08-21T05:16:21;101058.22;;;24.10;97.52
13709;BME280;54933;51.908;7.730;2022-08-21T05:18:47;101062.81;;;24.10;97.50
13709;BME280;54933;51.908;7.730;2022-08-21T05:21:12;101052.78;;;24.10;97.78
13709;BME280;54933;51.908;7.730;2022-08-21T05:23:37;101058.22;;;24.10;98.08
13709;BME280;54933;51.908;7.730;2022-08-21T05:26:03;101062.81;;;24.10;98.20
13709;BME280;54933;51.908;7.730;2022-08-21T05:28:29;101060.94;;;24.10;98.24
13709;BME280;54933;51.908;7.730;2022-08-21T05:30:55;101068.25;;;24.10;98.58
13709;BME280;54933;51.908;7.730;2022-08-21T05:33:20;101062.00;;;24.09;98.79
13709;BME280;54933;51.908;7.730;2022-08-21T05:35:50;101057.38;;;24.10;98.75
13709;BME280;54933;51.908;7.730;2022-08-21T05:38:16;101056.56;;;24.09;98.86
13709;BME280;54933;51.908;7.730;2022-08-21T05:40:41;101060.94;;;24.10;98.88
13709;BME280;54933;51.908;7.730;2022-08-21T05:43:08;101058.22;;;24.10;98.83
13709;BME280;54933;51.908;7.730;2022-08-21T05:45:33;101058.22;;;24.10;98.80
13709;BME280;54933;51.908;7.730;2022-08-21T05:48:12;101052.78;;;24.10;98.56
13709;BME280;54933;51.908;7.730;2022-08-21T05:50:38;101057.38;;;24.10;97.98
13709;BME280;54933;51.908;7.730;2022-08-21T05:53:04;101053.25;;;24.07;96.32
13709;BME280;54933;51.908;7.730;2022-08-21T05:55:30;101051.94;;;24.10;95.25
13709;BME280;54933;51.908;7.730;2022-08-21T05:57:55;101054.75;;;24.03;92.63
13709;BME280;54933;51.908;7.730;2022-08-21T06:00:20;101045.88;;;23.96;91.05
13709;BME280;54933;51.908;7.730;2022-08-21T06:02:47;101045.88;;;23.96;89.81
13709;BME280;54933;51.908;7.730;2022-08-21T06:05:13;101045.13;;;23.89;88.79
13709;BME280;54933;51.908;7.730;2022-08-21T06:07:39;101045.97;;;23.90;88.22
13709;BME280;54933;51.908;7.730;2022-08-21T06:10:04;101044.50;;;23.87;87.72
13709;BME280;54933;51.908;7.730;2022-08-21T06:12:29;101048.53;;;23.85;87.37
13709;BME280;54933;51.908;7.730;2022-08-21T06:14:55;101048.06;;;23.88;87.18
13709;BME280;54933;51.908;7.730;2022-08-21T06:17:20;101054.34;;;23.88;86.71
13709;BME280;54933;51.908;7.730;2022-08-21T06:19:51;101052.66;;;23.87;86.77
13709;BME280;54933;51.908;7.730;2022-08-21T06:22:16;101059.75;;;23.88;86.72
13709;BME280;54933;51.908;7.730;2022-08-21T06:24:41;101057.63;;;23.90;86.74
13709;BME280;54933;51.908;7.730;2022-08-21T06:27:07;101049.47;;;23.90;86.92
13709;BME280;54933;51.908;7.730;2022-08-21T06:29:33;101057.63;;;23.90;86.94
13709;BME280;54933;51.908;7.730;2022-08-21T06:31:59;101054.66;;;23.92;86.96
13709;BME280;54933;51.908;7.730;2022-08-21T06:34:24;101047.97;;;23.94;86.82
13709;BME280;54933;51.908;7.730;2022-08-21T06:36:49;101057.75;;;23.95;86.73
13709;BME280;54933;51.908;7.730;2022-08-21T06:39:15;101056.72;;;23.96;86.62
13709;BME280;54933;51.908;7.730;2022-08-21T06:41:40;101058.41;;;23.97;86.73
13709;BME280;54933;51.908;7.730;2022-08-21T06:44:05;101057.94;;;24.00;86.25
13709;BME280;54933;51.908;7.730;2022-08-21T06:46:31;101054.38;;;24.00;86.19
13709;BME280;54933;51.908;7.730;2022-08-21T06:48:57;101063.97;;;24.02;86.49
13709;BME280;54933;51.908;7.730;2022-08-21T06:51:24;101059.63;;;24.01;86.26
13709;BME280;54933;51.908;7.730;2022-08-21T06:53:51;101054.19;;;24.01;86.46
13709;BME280;54933;51.908;7.730;2022-08-21T06:56:16;101051.47;;;24.01;86.31
13709;BME280;54933;51.908;7.730;2022-08-21T06:58:41;101046.63;;;24.03;86.71
13709;BME280;54933;51.908;7.730;2022-08-21T07:01:07;101051.59;;;24.06;86.83
13709;BME280;54933;51.908;7.730;2022-08-21T07:03:35;101052.19;;;24.08;86.93
13709;BME280;54933;51.908;7.730;2022-08-21T07:06:01;101051.94;;;24.10;86.81
13709;BME280;54933;51.908;7.730;2022-08-21T07:08:27;101052.78;;;24.10;86.78
13709;BME280;54933;51.908;7.730;2022-08-21T07:10:55;101049.47;;;24.08;87.35
13709;BME280;54933;51.908;7.730;2022-08-21T07:13:21;101046.53;;;24.10;87.17
13709;BME280;54933;51.908;7.730;2022-08-21T07:15:47;101044.41;;;24.12;87.02
13709;BME280;54933;51.908;7.730;2022-08-21T07:18:12;101045.47;;;24.11;87.50
13709;BME280;54933;51.908;7.730;2022-08-21T07:20:39;101049.00;;;24.11;87.69
13709;BME280;54933;51.908;7.730;2022-08-21T07:23:07;101051.94;;;24.10;87.95
13709;BME280;54933;51.908;7.730;2022-08-21T07:25:34;101043.81;;;24.10;88.56
13709;BME280;54933;51.908;7.730;2022-08-21T07:27:59;101045.72;;;24.09;88.96
13709;BME280;54933;51.908;7.730;2022-08-21T07:30:25;101049.47;;;24.08;89.28
13709;BME280;54933;51.908;7.730;2022-08-21T07:32:51;101052.19;;;24.08;89.55
13709;BME280;54933;51.908;7.730;2022-08-21T07:35:18;101044.88;;;24.09;89.66
13709;BME280;54933;51.908;7.730;2022-08-21T07:37:44;101046.75;;;24.08;89.61
13709;BME280;54933;51.908;7.730;2022-08-21T07:40:10;101044.03;;;24.08;89.73
13709;BME280;54933;51.908;7.730;2022-08-21T07:42:40;101039.69;;;24.07;89.94
13709;BME280;54933;51.908;7.730;2022-08-21T07:45:06;101049.47;;;24.08;90.22
13709;BME280;54933;51.908;7.730;2022-08-21T07:47:32;101047.81;;;24.07;90.46
13709;BME280;54933;51.908;7.730;2022-08-21T07:49:57;101054.09;;;24.08;90.36
13709;BME280;54933;51.908;7.730;2022-08-21T07:52:22;101047.81;;;24.07;90.52
13709;BME280;54933;51.908;7.730;2022-08-21T07:54:47;101046.16;;;24.06;90.69
13709;BME280;54933;51.908;7.730;2022-08-21T07:57:13;101044.50;;;24.05;90.87
13709;BME280;54933;51.908;7.730;2022-08-21T07:59:38;101048.88;;;24.06;90.86
13709;BME280;54933;51.908;7.730;2022-08-21T08:02:03;101048.88;;;24.06;90.88
13709;BME280;54933;51.908;7.730;2022-08-21T08:04:29;101039.91;;;24.06;90.88
13709;BME280;54933;51.908;7.730;2022-08-21T08:06:54;101047.00;;;24.07;91.00
13709;BME280;54933;51.908;7.730;2022-08-21T08:09:19;101052.41;;;24.07;91.01
13709;BME280;54933;51.908;7.730;2022-08-21T08:11:44;101041.56;;;24.07;91.02
13709;BME280;54933;51.908;7.730;2022-08-21T08:14:10;101049.31;;;24.03;90.29
13709;BME280;54933;51.908;7.730;2022-08-21T08:16:35;101044.81;;;23.97;88.50
13709;BME280;54933;51.908;7.730;2022-08-21T08:19:01;101040.00;;;23.99;86.85
13709;BME280;54933;51.908;7.730;2022-08-21T08:21:26;101038.09;;;24.00;85.50
13709;BME280;54933;51.908;7.730;2022-08-21T08:23:52;101033.75;;;23.99;83.91
13709;BME280;54933;51.908;7.730;2022-08-21T08:26:18;101026.72;;;23.91;82.56
13709;BME280;54933;51.908;7.730;2022-08-21T08:28:43;101027.47;;;23.98;81.84
13709;BME280;54933;51.908;7.730;2022-08-21T08:31:09;101024.09;;;24.03;82.03
13709;BME280;54933;51.908;7.730;2022-08-21T08:33:34;101022.19;;;24.03;82.89
13709;BME280;54933;51.908;7.730;2022-08-21T08:35:59;101017.34;;;24.05;83.68
13709;BME280;54933;51.908;7.730;2022-08-21T08:38:25;101024.44;;;24.06;84.22
13709;BME280;54933;51.908;7.730;2022-08-21T08:41:12;101018.19;;;24.06;84.90
13709;BME280;54933;51.908;7.730;2022-08-21T08:43:39;101017.34;;;24.05;85.29
13709;BME280;54933;51.908;7.730;2022-08-21T08:46:12;101010.03;;;24.06;85.61
13709;BME280;54933;51.908;7.730;2022-08-21T08:49:00;101016.53;;;24.05;85.85
13709;BME280;54933;51.908;7.730;2022-08-21T08:54:11;101011.94;;;24.05;86.46
13709;BME280;54933;51.908;7.730;2022-08-21T08:56:38;101013.56;;;24.06;87.16
13709;BME280;54933;51.908;7.730;2022-08-21T08:59:18;101016.28;;;24.06;87.30
13709;BME280;54933;51.908;7.730;2022-08-21T09:01:46;101019.00;;;24.06;87.60
13709;BME280;54933;51.908;7.730;2022-08-21T09:04:12;101008.13;;;24.06;88.05
13709;BME280;54933;51.908;7.730;2022-08-21T09:09:34;101008.97;;;24.07;88.10
13709;BME280;54933;51.908;7.730;2022-08-21T09:12:12;101005.44;;;24.06;88.53
13709;BME280;54933;51.908;7.730;2022-08-21T09:17:39;101002.72;;;24.06;88.78
13709;BME280;54933;51.908;7.730;2022-08-21T09:26:11;100995.41;;;24.07;89.18
13709;BME280;54933;51.908;7.730;2022-08-21T09:28:37;100998.94;;;24.07;89.37
13709;BME280;54933;51.908;7.730;2022-08-21T09:31:08;100988.09;;;24.07;89.50
13709;BME280;54933;51.908;7.730;2022-08-21T09:33:34;100986.22;;;24.08;89.59
13709;BME280;54933;51.908;7.730;2022-08-21T09:35:59;100991.41;;;24.09;89.33
13709;BME280;54933;51.908;7.730;2022-08-21T09:38:34;100982.19;;;24.10;88.91
13709;BME280;54933;51.908;7.730;2022-08-21T09:41:03;100982.19;;;24.10;88.72
13709;BME280;54933;51.908;7.730;2022-08-21T09:43:30;100986.56;;;24.11;88.43
13709;BME280;54933;51.908;7.730;2022-08-21T09:48:55;100983.25;;;24.09;87.86
13709;BME280;54933;51.908;7.730;2022-08-21T09:51:27;100975.94;;;24.10;87.86
13709;BME280;54933;51.908;7.730;2022-08-21T09:53:57;100976.75;;;24.10;87.62
13709;BME280;54933;51.908;7.730;2022-08-21T09:56:30;100982.19;;;24.10;87.56
13709;BME280;54933;51.908;7.730;2022-08-21T09:59:24;100971.34;;;24.10;87.55
13709;BME280;54933;51.908;7.730;2022-08-21T10:01:53;100968.63;;;24.10;87.76
13709;BME280;54933;51.908;7.730;2022-08-21T10:04:27;100975.94;;;24.10;87.94
13709;BME280;54933;51.908;7.730;2022-08-21T10:06:52;100971.34;;;24.10;87.97
13709;BME280;54933;51.908;7.730;2022-08-21T10:09:19;100965.91;;;24.10;88.13
13709;BME280;54933;51.908;7.730;2022-08-21T10:12:14;100965.91;;;24.10;88.13
13709;BME280;54933;51.908;7.730;2022-08-21T10:14:59;100965.91;;;24.10;88.35
13709;BME280;54933;51.908;7.730;2022-08-21T10:17:36;100971.34;;;24.10;88.52
13709;BME280;54933;51.908;7.730;2022-08-21T10:20:22;100971.34;;;24.10;88.62
13709;BME280;54933;51.908;7.730;2022-08-21T10:23:19;100971.34;;;24.10;88.89
13709;BME280;54933;51.908;7.730;2022-08-21T10:26:08;100965.06;;;24.10;88.93
13709;BME280;54933;51.908;7.730;2022-08-21T10:29:03;100968.63;;;24.10;89.08
13709;BME280;54933;51.908;7.730;2022-08-21T10:31:39;100973.22;;;24.10;88.92
13709;BME280;54933;51.908;7.730;2022-08-21T10:40:25;100961.56;;;24.09;89.19
13709;BME280;54933;51.908;7.730;2022-08-21T10:48:28;100959.63;;;24.10;89.44
13709;BME280;54933;51.908;7.730;2022-08-21T10:51:06;100953.16;;;24.11;89.50
13709;BME280;54933;51.908;7.730;2022-08-21T10:56:29;100946.91;;;24.10;89.54
13709;BME280;54933;51.908;7.730;2022-08-21T10:59:29;100944.19;;;24.10;89.77
13709;BME280;54933;51.908;7.730;2022-08-21T11:01:58;100948.53;;;24.11;89.52
13709;BME280;54933;51.908;7.730;2022-08-21T11:04:36;100941.47;;;24.10;89.87
13709;BME280;54933;51.908;7.730;2022-08-21T11:07:12;100943.13;;;24.11;89.80
13709;BME280;54933;51.908;7.730;2022-08-21T11:09:43;100940.41;;;24.11;89.96
13709;BME280;54933;51.908;7.730;2022-08-21T11:12:25;100951.25;;;24.11;90.00
13709;BME280;54933;51.908;7.730;2022-08-21T11:15:00;100951.25;;;24.11;90.18
13709;BME280;54933;51.908;7.730;2022-08-21T11:17:35;100952.94;;;24.13;90.14
13709;BME280;54933;51.908;7.730;2022-08-21T11:20:11;100949.16;;;24.13;90.25
13709;BME280;54933;51.908;7.730;2022-08-21T11:22:41;100944.56;;;24.14;90.32
13709;BME280;54933;51.908;7.730;2022-08-21T11:25:34;100941.22;;;24.12;90.38
13709;BME280;54933;51.908;7.730;2022-08-21T11:28:10;100948.09;;;24.15;90.18
13709;BME280;54933;51.908;7.730;2022-08-21T11:33:50;100949.16;;;24.13;90.50
13709;BME280;54933;51.908;7.730;2022-08-21T11:36:43;100946.44;;;24.13;90.57
13709;BME280;54933;51.908;7.730;2022-08-21T11:39:24;100945.38;;;24.15;90.38
13709;BME280;54933;51.908;7.730;2022-08-21T11:44:42;100946.19;;;24.15;90.68
13709;BME280;54933;51.908;7.730;2022-08-21T11:47:39;100958.97;;;24.15;90.23
13709;BME280;54933;51.908;7.730;2022-08-21T11:50:18;100948.91;;;24.15;90.12
13709;BME280;54933;51.908;7.730;2022-08-21T11:55:40;100946.19;;;24.15;89.86
13709;BME280;54933;51.908;7.730;2022-08-21T11:58:21;100957.91;;;24.16;89.69
13709;BME280;54933;51.908;7.730;2022-08-21T12:01:00;100952.47;;;24.16;89.85
13709;BME280;54933;51.908;7.730;2022-08-21T12:03:37;100956.00;;;24.16;89.67
13709;BME280;54933;51.908;7.730;2022-08-21T12:06:09;100955.19;;;24.16;89.56
13709;BME280;54933;51.908;7.730;2022-08-21T12:08:43;100957.91;;;24.16;89.32
13709;BME280;54933;51.908;7.730;2022-08-21T12:21:30;100953.53;;;24.15;88.84
13709;BME280;54933;51.908;7.730;2022-08-21T12:26:55;100957.91;;;24.16;88.19
13709;BME280;54933;51.908;7.730;2022-08-21T12:34:39;100947.03;;;24.16;87.80
13709;BME280;54933;51.908;7.730;2022-08-21T12:37:14;100946.19;;;24.15;87.73
13709;BME280;54933;51.908;7.730;2022-08-21T12:39:44;100946.19;;;24.15;87.53
13709;BME280;54933;51.908;7.730;2022-08-21T12:42:17;100946.19;;;24.15;87.42
13709;BME280;54933;51.908;7.730;2022-08-21T12:44:47;100948.91;;;24.15;87.26
13709;BME280;54933;51.908;7.730;2022-08-21T12:47:20;100948.66;;;24.17;87.41
13709;BME280;54933;51.908;7.730;2022-08-21T12:49:58;100941.59;;;24.16;87.46
13709;BME280;54933;51.908;7.730;2022-08-21T12:52:33;100937.81;;;24.17;87.36
13709;BME280;54933;51.908;7.730;2022-08-21T12:55:00;100941.38;;;24.17;87.19
13709;BME280;54933;51.908;7.730;2022-08-21T12:57:28;100934.53;;;24.15;86.74
13709;BME280;54933;51.908;7.730;2022-08-21T12:59:56;100929.91;;;24.15;85.34
13709;BME280;54933;51.908;7.730;2022-08-21T13:02:32;100926.16;;;24.16;84.96
13709;BME280;54933;51.908;7.730;2022-08-21T13:05:03;100919.03;;;24.15;84.75
13709;BME280;54933;51.908;7.730;2022-08-21T13:07:31;100933.44;;;24.16;84.82
13709;BME280;54933;51.908;7.730;2022-08-21T13:10:07;100927.41;;;24.13;84.10
13709;BME280;54933;51.908;7.730;2022-08-21T13:12:40;100922.00;;;24.13;83.20
13709;BME280;54933;51.908;7.730;2022-08-21T13:15:06;100927.41;;;24.13;82.30
13709;BME280;54933;51.908;7.730;2022-08-21T13:17:36;100920.34;;;24.13;81.87
13709;BME280;54933;51.908;7.730;2022-08-21T13:20:24;100920.13;;;24.14;81.84
13709;BME280;54933;51.908;7.730;2022-08-21T13:22:52;100927.41;;;24.13;81.54
13709;BME280;54933;51.908;7.730;2022-08-21T13:25:20;100924.09;;;24.11;81.19
13709;BME280;54933;51.908;7.730;2022-08-21T13:28:07;100919.75;;;24.10;80.18
13709;BME280;54933;51.908;7.730;2022-08-21T13:30:37;100917.03;;;24.10;79.14
13709;BME280;54933;51.908;7.730;2022-08-21T13:33:05;100924.09;;;24.11;78.59
13709;BME280;54933;51.908;7.730;2022-08-21T13:35:44;100931.44;;;24.11;78.31
13709;BME280;54933;51.908;7.730;2022-08-21T13:38:12;100920.59;;;24.11;78.46
13709;BME280;54933;51.908;7.730;2022-08-21T13:40:49;100924.09;;;24.11;78.46
13709;BME280;54933;51.908;7.730;2022-08-21T13:43:17;100906.41;;;24.09;77.16
13709;BME280;54933;51.908;7.730;2022-08-21T13:45:47;100909.97;;;24.09;74.61
13709;BME280;54933;51.908;7.730;2022-08-21T13:48:13;100919.50;;;24.12;73.37
13709;BME280;54933;51.908;7.730;2022-08-21T13:50:40;100923.88;;;24.13;73.29
13709;BME280;54933;51.908;7.730;2022-08-21T13:53:18;100920.34;;;24.13;74.02
13709;BME280;54933;51.908;7.730;2022-08-21T13:55:44;100911.38;;;24.12;74.89
13709;BME280;54933;51.908;7.730;2022-08-21T13:58:10;100918.69;;;24.11;75.53